sensor_id;sensor_type;location;lat;lon;timestamp;P1;durP1;ratioP1;P2;durP2;ratioP2
12776;SDS011;6452;41.572;23.732;2022-07-29T00:01:42;4.40;;;4.00;;
12776;SDS011;6452;41.572;23.732;2022-07-29T00:04:09;4.43;;;4.10;;
12776;SDS011;6452;41.572;23.732;2022-07-29T00:06:34;4.18;;;3.70;;
12776;SDS011;6452;41.572;23.732;2022-07-29T00:09:00;4.70;;;4.07;;
12776;SDS011;6452;41.572;23.732;2022-07-29T00:11:27;4.18;;;3.83;;
12776;SDS011;6452;41.572;23.732;2022-07-29T00:13:53;4.13;;;3.92;;
12776;SDS011;6452;41.572;23.732;2022-07-29T00:16:19;3.90;;;3.63;;
12776;SDS011;6452;41.572;23.732;2022-07-29T00:18:45;4.95;;;4.53;;
12776;SDS011;6452;41.572;23.732;2022-07-29T00:21:12;4.75;;;4.35;;
12776;SDS011;6452;41.572;23.732;2022-07-29T00:23:38;5.25;;;4.60;;
12776;SDS011;6452;41.572;23.732;2022-07-29T00:26:04;4.80;;;4.40;;
12776;SDS011;6452;41.572;23.732;2022-07-29T00:28:30;5.03;;;4.63;;
12776;SDS011;6452;41.572;23.732;2022-07-29T00:30:56;4.60;;;4.30;;
12776;SDS011;6452;41.572;23.732;2022-07-29T00:33:22;5.20;;;4.72;;
12776;SDS011;6452;41.572;23.732;2022-07-29T00:35:49;5.45;;;4.63;;
12776;SDS011;6452;41.572;23.732;2022-07-29T00:38:16;9.82;;;4.93;;
12776;SDS011;6452;41.572;23.732;2022-07-29T00:40:42;4.75;;;4.28;;
12776;SDS011;6452;41.572;23.732;2022-07-29T00:43:09;4.85;;;4.50;;
12776;SDS011;6452;41.572;23.732;2022-07-29T00:45:35;6.00;;;4.85;;
12776;SDS011;6452;41.572;23.732;2022-07-29T00:48:02;5.00;;;4.60;;
12776;SDS011;6452;41.572;23.732;2022-07-29T00:50:28;5.55;;;4.97;;
12776;SDS011;6452;41.572;23.732;2022-07-29T00:52:54;5.15;;;4.75;;
12776;SDS011;6452;41.572;23.732;2022-07-29T00:55:20;5.55;;;5.15;;
12776;SDS011;6452;41.572;23.732;2022-07-29T00:57:46;5.47;;;5.03;;
12776;SDS011;6452;41.572;23.732;2022-07-29T01:00:14;6.15;;;5.57;;
12776;SDS011;6452;41.572;23.732;2022-07-29T01:02:40;5.70;;;5.30;;
12776;SDS011;6452;41.572;23.732;2022-07-29T01:05:07;6.03;;;5.63;;
12776;SDS011;6452;41.572;23.732;2022-07-29T01:07:34;6.22;;;5.68;;
12776;SDS011;6452;41.572;23.732;2022-07-29T01:10:00;6.57;;;5.75;;
12776;SDS011;6452;41.572;23.732;2022-07-29T01:12:28;6.10;;;5.60;;
12776;SDS011;6452;41.572;23.732;2022-07-29T01:14:55;6.07;;;5.68;;
12776;SDS011;6452;41.572;23.732;2022-07-29T01:19:49;6.57;;;5.88;;
12776;SDS011;6452;41.572;23.732;2022-07-29T01:30:06;6.10;;;5.60;;
12776;SDS011;6452;41.572;23.732;2022-07-29T01:32:34;6.28;;;5.78;;
12776;SDS011;6452;41.572;23.732;2022-07-29T01:35:04;6.30;;;5.82;;
12776;SDS011;6452;41.572;23.732;2022-07-29T01:37:38;6.65;;;5.95;;
12776;SDS011;6452;41.572;23.732;2022-07-29T01:40:05;6.93;;;6.30;;
12776;SDS011;6452;41.572;23.732;2022-07-29T01:42:44;7.88;;;6.38;;
12776;SDS011;6452;41.572;23.732;2022-07-29T01:47:41;6.57;;;6.05;;
12776;SDS011;6452;41.572;23.732;2022-07-29T01:50:10;6.32;;;5.82;;
12776;SDS011;6452;41.572;23.732;2022-07-29T01:52:39;6.63;;;6.03;;
12776;SDS011;6452;41.572;23.732;2022-07-29T01:55:12;7.63;;;6.15;;
12776;SDS011;6452;41.572;23.732;2022-07-29T01:57:39;6.97;;;6.50;;
12776;SDS011;6452;41.572;23.732;2022-07-29T02:00:06;6.85;;;6.10;;
12776;SDS011;6452;41.572;23.732;2022-07-29T02:02:34;8.98;;;5.72;;
12776;SDS011;6452;41.572;23.732;2022-07-29T02:05:01;6.53;;;5.88;;
12776;SDS011;6452;41.572;23.732;2022-07-29T02:07:28;6.57;;;6.07;;
12776;SDS011;6452;41.572;23.732;2022-07-29T02:09:55;6.32;;;5.82;;
12776;SDS011;6452;41.572;23.732;2022-07-29T02:12:24;6.57;;;6.03;;
12776;SDS011;6452;41.572;23.732;2022-07-29T02:14:52;7.13;;;6.60;;
12776;SDS011;6452;41.572;23.732;2022-07-29T02:17:21;6.80;;;6.30;;
12776;SDS011;6452;41.572;23.732;2022-07-29T02:19:48;7.30;;;6.80;;
12776;SDS011;6452;41.572;23.732;2022-07-29T02:22:14;8.85;;;6.53;;
12776;SDS011;6452;41.572;23.732;2022-07-29T02:24:42;6.72;;;6.18;;
12776;SDS011;6452;41.572;23.732;2022-07-29T02:27:08;6.72;;;6.22;;
12776;SDS011;6452;41.572;23.732;2022-07-29T02:29:35;7.60;;;6.90;;
12776;SDS011;6452;41.572;23.732;2022-07-29T02:32:02;7.68;;;6.93;;
12776;SDS011;6452;41.572;23.732;2022-07-29T02:34:29;7.43;;;6.63;;
12776;SDS011;6452;41.572;23.732;2022-07-29T02:36:56;7.43;;;6.70;;
12776;SDS011;6452;41.572;23.732;2022-07-29T02:39:23;7.60;;;6.90;;
12776;SDS011;6452;41.572;23.732;2022-07-29T02:41:51;7.55;;;6.85;;
12776;SDS011;6452;41.572;23.732;2022-07-29T02:44:23;7.20;;;6.70;;
12776;SDS011;6452;41.572;23.732;2022-07-29T02:46:51;8.35;;;6.60;;
12776;SDS011;6452;41.572;23.732;2022-07-29T02:52:28;7.32;;;6.53;;
12776;SDS011;6452;41.572;23.732;2022-07-29T02:55:14;7.95;;;7.25;;
12776;SDS011;6452;41.572;23.732;2022-07-29T02:57:51;10.65;;;7.47;;
12776;SDS011;6452;41.572;23.732;2022-07-29T03:00:20;8.77;;;6.93;;
12776;SDS011;6452;41.572;23.732;2022-07-29T03:02:48;7.45;;;6.70;;
12776;SDS011;6452;41.572;23.732;2022-07-29T03:05:17;6.93;;;6.53;;
12776;SDS011;6452;41.572;23.732;2022-07-29T03:10:25;7.20;;;6.50;;
12776;SDS011;6452;41.572;23.732;2022-07-29T03:12:51;7.22;;;6.78;;
12776;SDS011;6452;41.572;23.732;2022-07-29T03:15:18;8.40;;;6.95;;
12776;SDS011;6452;41.572;23.732;2022-07-29T03:17:44;8.02;;;7.22;;
12776;SDS011;6452;41.572;23.732;2022-07-29T03:20:11;8.30;;;7.57;;
12776;SDS011;6452;41.572;23.732;2022-07-29T03:22:41;8.20;;;7.50;;
12776;SDS011;6452;41.572;23.732;2022-07-29T03:25:23;7.68;;;7.05;;
12776;SDS011;6452;41.572;23.732;2022-07-29T03:27:50;7.50;;;6.90;;
12776;SDS011;6452;41.572;23.732;2022-07-29T03:30:16;9.32;;;7.07;;
12776;SDS011;6452;41.572;23.732;2022-07-29T03:32:43;8.35;;;7.50;;
12776;SDS011;6452;41.572;23.732;2022-07-29T03:35:08;7.65;;;6.90;;
12776;SDS011;6452;41.572;23.732;2022-07-29T03:37:35;8.60;;;7.18;;
12776;SDS011;6452;41.572;23.732;2022-07-29T03:40:02;7.68;;;7.07;;
12776;SDS011;6452;41.572;23.732;2022-07-29T03:42:30;7.60;;;6.88;;
12776;SDS011;6452;41.572;23.732;2022-07-29T03:44:57;7.28;;;6.78;;
12776;SDS011;6452;41.572;23.732;2022-07-29T03:47:23;7.57;;;6.82;;
12776;SDS011;6452;41.572;23.732;2022-07-29T03:49:52;7.18;;;6.60;;
12776;SDS011;6452;41.572;23.732;2022-07-29T03:52:19;6.88;;;6.38;;
12776;SDS011;6452;41.572;23.732;2022-07-29T03:54:46;8.00;;;7.30;;
12776;SDS011;6452;41.572;23.732;2022-07-29T03:57:12;8.15;;;7.35;;
12776;SDS011;6452;41.572;23.732;2022-07-29T03:59:40;8.32;;;7.63;;
12776;SDS011;6452;41.572;23.732;2022-07-29T04:02:08;7.60;;;7.00;;
12776;SDS011;6452;41.572;23.732;2022-07-29T04:04:34;9.38;;;6.90;;
12776;SDS011;6452;41.572;23.732;2022-07-29T04:07:00;8.38;;;7.72;;
12776;SDS011;6452;41.572;23.732;2022-07-29T04:09:26;7.82;;;7.22;;
12776;SDS011;6452;41.572;23.732;2022-07-29T04:11:52;8.52;;;7.82;;
12776;SDS011;6452;41.572;23.732;2022-07-29T04:14:19;8.25;;;7.65;;
12776;SDS011;6452;41.572;23.732;2022-07-29T04:16:46;12.25;;;7.95;;
12776;SDS011;6452;41.572;23.732;2022-07-29T04:19:16;8.18;;;7.32;;
12776;SDS011;6452;41.572;23.732;2022-07-29T04:21:42;8.18;;;7.45;;
12776;SDS011;6452;41.572;23.732;2022-07-29T04:24:10;8.80;;;7.93;;
12776;SDS011;6452;41.572;23.732;2022-07-29T04:26:36;9.95;;;7.35;;
12776;SDS011;6452;41.572;23.732;2022-07-29T04:29:02;9.13;;;8.02;;
12776;SDS011;6452;41.572;23.732;2022-07-29T04:31:29;7.75;;;7.05;;
12776;SDS011;6452;41.572;23.732;2022-07-29T04:33:55;11.10;;;8.27;;
12776;SDS011;6452;41.572;23.732;2022-07-29T04:36:21;8.57;;;7.70;;
12776;SDS011;6452;41.572;23.732;2022-07-29T04:38:47;9.18;;;8.07;;
12776;SDS011;6452;41.572;23.732;2022-07-29T04:41:13;8.25;;;7.65;;
12776;SDS011;6452;41.572;23.732;2022-07-29T04:43:40;8.70;;;8.07;;
12776;SDS011;6452;41.572;23.732;2022-07-29T04:46:06;9.90;;;8.18;;
12776;SDS011;6452;41.572;23.732;2022-07-29T04:48:32;9.43;;;8.48;;
12776;SDS011;6452;41.572;23.732;2022-07-29T04:50:59;9.40;;;8.38;;
12776;SDS011;6452;41.572;23.732;2022-07-29T04:53:24;11.65;;;8.02;;
12776;SDS011;6452;41.572;23.732;2022-07-29T04:55:50;13.80;;;8.95;;
12776;SDS011;6452;41.572;23.732;2022-07-29T04:58:16;8.25;;;7.30;;
12776;SDS011;6452;41.572;23.732;2022-07-29T05:00:42;7.25;;;6.60;;
12776;SDS011;6452;41.572;23.732;2022-07-29T05:03:08;15.63;;;8.23;;
12776;SDS011;6452;41.572;23.732;2022-07-29T05:05:34;9.00;;;7.63;;
12776;SDS011;6452;41.572;23.732;2022-07-29T05:08:00;9.13;;;8.32;;
12776;SDS011;6452;41.572;23.732;2022-07-29T05:10:26;9.63;;;7.85;;
12776;SDS011;6452;41.572;23.732;2022-07-29T05:12:54;10.40;;;8.13;;
12776;SDS011;6452;41.572;23.732;2022-07-29T05:15:20;11.38;;;7.75;;
12776;SDS011;6452;41.572;23.732;2022-07-29T05:17:45;10.95;;;8.75;;
12776;SDS011;6452;41.572;23.732;2022-07-29T05:20:11;10.23;;;8.52;;
12776;SDS011;6452;41.572;23.732;2022-07-29T05:22:37;7.80;;;7.20;;
12776;SDS011;6452;41.572;23.732;2022-07-29T05:25:03;9.18;;;7.63;;
12776;SDS011;6452;41.572;23.732;2022-07-29T05:27:31;7.90;;;7.22;;
12776;SDS011;6452;41.572;23.732;2022-07-29T05:29:56;10.55;;;8.20;;
12776;SDS011;6452;41.572;23.732;2022-07-29T05:32:23;8.27;;;7.45;;
12776;SDS011;6452;41.572;23.732;2022-07-29T05:34:49;10.35;;;8.05;;
12776;SDS011;6452;41.572;23.732;2022-07-29T05:37:15;9.05;;;7.18;;
12776;SDS011;6452;41.572;23.732;2022-07-29T05:39:41;9.20;;;7.63;;
12776;SDS011;6452;41.572;23.732;2022-07-29T05:42:10;7.88;;;7.07;;
12776;SDS011;6452;41.572;23.732;2022-07-29T05:44:54;7.75;;;6.97;;
12776;SDS011;6452;41.572;23.732;2022-07-29T05:47:21;8.35;;;7.63;;
12776;SDS011;6452;41.572;23.732;2022-07-29T05:49:46;7.65;;;6.95;;
12776;SDS011;6452;41.572;23.732;2022-07-29T05:52:13;10.73;;;7.78;;
12776;SDS011;6452;41.572;23.732;2022-07-29T05:54:39;9.45;;;7.22;;
12776;SDS011;6452;41.572;23.732;2022-07-29T05:57:05;8.23;;;7.43;;
12776;SDS011;6452;41.572;23.732;2022-07-29T05:59:37;8.90;;;8.10;;
12776;SDS011;6452;41.572;23.732;2022-07-29T06:02:03;11.57;;;8.38;;
12776;SDS011;6452;41.572;23.732;2022-07-29T06:04:31;8.95;;;8.15;;
12776;SDS011;6452;41.572;23.732;2022-07-29T06:06:56;11.55;;;9.32;;
12776;SDS011;6452;41.572;23.732;2022-07-29T06:09:23;11.25;;;8.68;;
12776;SDS011;6452;41.572;23.732;2022-07-29T06:11:49;10.43;;;7.88;;
12776;SDS011;6452;41.572;23.732;2022-07-29T06:14:15;11.05;;;8.25;;
12776;SDS011;6452;41.572;23.732;2022-07-29T06:16:41;9.00;;;8.07;;
12776;SDS011;6452;41.572;23.732;2022-07-29T06:19:08;9.05;;;8.23;;
12776;SDS011;6452;41.572;23.732;2022-07-29T06:21:34;9.20;;;8.40;;
12776;SDS011;6452;41.572;23.732;2022-07-29T06:24:00;10.68;;;8.60;;
12776;SDS011;6452;41.572;23.732;2022-07-29T06:26:27;9.02;;;8.32;;
12776;SDS011;6452;41.572;23.732;2022-07-29T06:28:53;9.45;;;8.65;;
12776;SDS011;6452;41.572;23.732;2022-07-29T06:31:18;8.95;;;8.18;;
12776;SDS011;6452;41.572;23.732;2022-07-29T06:33:45;9.45;;;8.57;;
12776;SDS011;6452;41.572;23.732;2022-07-29T06:36:11;9.20;;;8.43;;
12776;SDS011;6452;41.572;23.732;2022-07-29T06:38:37;9.52;;;8.55;;
12776;SDS011;6452;41.572;23.732;2022-07-29T06:41:03;9.00;;;8.20;;
12776;SDS011;6452;41.572;23.732;2022-07-29T06:43:34;10.63;;;8.52;;
12776;SDS011;6452;41.572;23.732;2022-07-29T06:46:06;9.13;;;8.13;;
12776;SDS011;6452;41.572;23.732;2022-07-29T06:48:32;8.88;;;8.07;;
12776;SDS011;6452;41.572;23.732;2022-07-29T06:50:59;8.65;;;8.00;;
12776;SDS011;6452;41.572;23.732;2022-07-29T06:53:27;8.90;;;8.18;;
12776;SDS011;6452;41.572;23.732;2022-07-29T06:55:52;9.45;;;8.50;;
12776;SDS011;6452;41.572;23.732;2022-07-29T06:58:19;9.00;;;8.20;;
12776;SDS011;6452;41.572;23.732;2022-07-29T07:00:46;9.77;;;8.45;;
12776;SDS011;6452;41.572;23.732;2022-07-29T07:03:12;8.88;;;7.97;;
12776;SDS011;6452;41.572;23.732;2022-07-29T07:05:38;8.50;;;7.80;;
12776;SDS011;6452;41.572;23.732;2022-07-29T07:08:04;8.73;;;7.93;;
12776;SDS011;6452;41.572;23.732;2022-07-29T07:10:30;10.77;;;7.93;;
12776;SDS011;6452;41.572;23.732;2022-07-29T07:12:56;8.40;;;7.68;;
12776;SDS011;6452;41.572;23.732;2022-07-29T07:15:22;8.38;;;7.72;;
12776;SDS011;6452;41.572;23.732;2022-07-29T07:17:53;8.32;;;7.72;;
12776;SDS011;6452;41.572;23.732;2022-07-29T07:20:19;9.13;;;8.10;;
12776;SDS011;6452;41.572;23.732;2022-07-29T07:22:45;8.98;;;8.13;;
12776;SDS011;6452;41.572;23.732;2022-07-29T07:25:11;8.43;;;7.63;;
12776;SDS011;6452;41.572;23.732;2022-07-29T07:27:38;8.95;;;8.15;;
12776;SDS011;6452;41.572;23.732;2022-07-29T07:30:04;8.98;;;8.07;;
12776;SDS011;6452;41.572;23.732;2022-07-29T07:32:33;8.18;;;7.57;;
12776;SDS011;6452;41.572;23.732;2022-07-29T07:35:00;7.75;;;7.25;;
12776;SDS011;6452;41.572;23.732;2022-07-29T07:37:30;8.65;;;7.80;;
12776;SDS011;6452;41.572;23.732;2022-07-29T07:39:56;8.73;;;8.02;;
12776;SDS011;6452;41.572;23.732;2022-07-29T07:42:23;8.35;;;7.60;;
12776;SDS011;6452;41.572;23.732;2022-07-29T07:44:49;9.23;;;7.57;;
12776;SDS011;6452;41.572;23.732;2022-07-29T07:47:15;8.65;;;7.90;;
12776;SDS011;6452;41.572;23.732;2022-07-29T07:49:48;17.02;;;8.68;;
12776;SDS011;6452;41.572;23.732;2022-07-29T07:52:30;9.23;;;8.32;;
12776;SDS011;6452;41.572;23.732;2022-07-29T07:54:56;9.63;;;8.23;;
12776;SDS011;6452;41.572;23.732;2022-07-29T07:57:22;8.55;;;7.95;;
12776;SDS011;6452;41.572;23.732;2022-07-29T07:59:49;8.60;;;7.80;;
12776;SDS011;6452;41.572;23.732;2022-07-29T08:02:15;8.82;;;8.13;;
12776;SDS011;6452;41.572;23.732;2022-07-29T08:04:41;8.25;;;7.65;;
12776;SDS011;6452;41.572;23.732;2022-07-29T08:07:07;7.78;;;7.20;;
12776;SDS011;6452;41.572;23.732;2022-07-29T08:09:33;7.45;;;6.95;;
12776;SDS011;6452;41.572;23.732;2022-07-29T08:12:00;8.45;;;7.85;;
12776;SDS011;6452;41.572;23.732;2022-07-29T08:14:29;8.38;;;7.78;;
12776;SDS011;6452;41.572;23.732;2022-07-29T08:16:57;8.15;;;7.45;;
12776;SDS011;6452;41.572;23.732;2022-07-29T08:19:23;8.02;;;7.32;;
12776;SDS011;6452;41.572;23.732;2022-07-29T08:21:49;9.35;;;8.20;;
12776;SDS011;6452;41.572;23.732;2022-07-29T08:24:17;7.57;;;7.10;;
12776;SDS011;6452;41.572;23.732;2022-07-29T08:27:01;8.35;;;7.65;;
12776;SDS011;6452;41.572;23.732;2022-07-29T08:29:28;8.25;;;7.53;;
12776;SDS011;6452;41.572;23.732;2022-07-29T08:31:54;9.57;;;8.68;;
12776;SDS011;6452;41.572;23.732;2022-07-29T08:34:20;35.00;;;27.77;;
12776;SDS011;6452;41.572;23.732;2022-07-29T08:36:46;27.95;;;23.08;;
12776;SDS011;6452;41.572;23.732;2022-07-29T08:39:12;36.95;;;28.35;;
12776;SDS011;6452;41.572;23.732;2022-07-29T08:41:38;16.35;;;15.05;;
12776;SDS011;6452;41.572;23.732;2022-07-29T08:44:04;13.45;;;12.25;;
12776;SDS011;6452;41.572;23.732;2022-07-29T08:46:31;17.92;;;16.02;;
12776;SDS011;6452;41.572;23.732;2022-07-29T08:48:57;8.40;;;7.68;;
12776;SDS011;6452;41.572;23.732;2022-07-29T08:51:23;9.57;;;7.25;;
12776;SDS011;6452;41.572;23.732;2022-07-29T08:53:51;22.38;;;19.17;;
12776;SDS011;6452;41.572;23.732;2022-07-29T08:56:17;7.93;;;7.18;;
12776;SDS011;6452;41.572;23.732;2022-07-29T08:58:44;8.85;;;8.05;;
12776;SDS011;6452;41.572;23.732;2022-07-29T09:01:11;10.82;;;9.18;;
12776;SDS011;6452;41.572;23.732;2022-07-29T09:03:37;6.70;;;6.20;;
12776;SDS011;6452;41.572;23.732;2022-07-29T09:06:05;6.55;;;6.03;;
12776;SDS011;6452;41.572;23.732;2022-07-29T09:08:35;7.65;;;6.68;;
12776;SDS011;6452;41.572;23.732;2022-07-29T09:11:02;7.15;;;6.65;;
12776;SDS011;6452;41.572;23.732;2022-07-29T09:13:28;6.72;;;5.88;;
12776;SDS011;6452;41.572;23.732;2022-07-29T09:15:54;24.88;;;22.52;;
12776;SDS011;6452;41.572;23.732;2022-07-29T09:20:59;7.65;;;7.03;;
12776;SDS011;6452;41.572;23.732;2022-07-29T09:24:36;7.43;;;6.72;;
12776;SDS011;6452;41.572;23.732;2022-07-29T09:26:30;6.43;;;5.88;;
12776;SDS011;6452;41.572;23.732;2022-07-29T09:28:56;6.10;;;5.70;;
12776;SDS011;6452;41.572;23.732;2022-07-29T09:31:32;6.63;;;6.07;;
12776;SDS011;6452;41.572;23.732;2022-07-29T09:33:59;6.25;;;5.90;;
12776;SDS011;6452;41.572;23.732;2022-07-29T09:36:26;6.72;;;6.15;;
12776;SDS011;6452;41.572;23.732;2022-07-29T09:38:59;7.30;;;6.57;;
12776;SDS011;6452;41.572;23.732;2022-07-29T09:41:26;6.88;;;6.38;;
12776;SDS011;6452;41.572;23.732;2022-07-29T09:43:56;6.38;;;5.97;;
12776;SDS011;6452;41.572;23.732;2022-07-29T09:46:23;6.00;;;5.60;;
12776;SDS011;6452;41.572;23.732;2022-07-29T09:51:33;6.50;;;5.90;;
12776;SDS011;6452;41.572;23.732;2022-07-29T09:53:59;7.43;;;5.50;;
12776;SDS011;6452;41.572;23.732;2022-07-29T09:56:41;6.50;;;6.00;;
12776;SDS011;6452;41.572;23.732;2022-07-29T09:59:23;8.18;;;5.82;;
12776;SDS011;6452;41.572;23.732;2022-07-29T10:01:52;5.88;;;5.55;;
12776;SDS011;6452;41.572;23.732;2022-07-29T10:04:18;6.40;;;5.85;;
12776;SDS011;6452;41.572;23.732;2022-07-29T10:07:00;5.95;;;5.32;;
12776;SDS011;6452;41.572;23.732;2022-07-29T10:09:29;6.00;;;5.47;;
12776;SDS011;6452;41.572;23.732;2022-07-29T10:12:11;5.35;;;5.05;;
12776;SDS011;6452;41.572;23.732;2022-07-29T10:14:57;5.82;;;5.53;;
12776;SDS011;6452;41.572;23.732;2022-07-29T10:17:23;5.53;;;5.22;;
12776;SDS011;6452;41.572;23.732;2022-07-29T10:19:50;8.20;;;5.30;;
12776;SDS011;6452;41.572;23.732;2022-07-29T10:22:16;5.43;;;5.03;;
12776;SDS011;6452;41.572;23.732;2022-07-29T10:24:42;5.10;;;4.68;;
12776;SDS011;6452;41.572;23.732;2022-07-29T10:27:08;5.63;;;5.13;;
12776;SDS011;6452;41.572;23.732;2022-07-29T10:29:34;15.95;;;8.10;;
12776;SDS011;6452;41.572;23.732;2022-07-29T10:32:20;5.43;;;5.03;;
12776;SDS011;6452;41.572;23.732;2022-07-29T10:42:25;5.10;;;4.80;;
12776;SDS011;6452;41.572;23.732;2022-07-29T10:44:51;11.38;;;10.48;;
12776;SDS011;6452;41.572;23.732;2022-07-29T10:47:21;4.60;;;4.30;;
12776;SDS011;6452;41.572;23.732;2022-07-29T10:49:57;5.82;;;4.40;;
12776;SDS011;6452;41.572;23.732;2022-07-29T10:55:23;5.43;;;4.05;;
12776;SDS011;6452;41.572;23.732;2022-07-29T10:58:11;4.18;;;3.97;;
12776;SDS011;6452;41.572;23.732;2022-07-29T11:00:41;4.18;;;3.97;;
12776;SDS011;6452;41.572;23.732;2022-07-29T11:03:06;3.90;;;3.70;;
12776;SDS011;6452;41.572;23.732;2022-07-29T11:05:55;3.85;;;3.55;;
12776;SDS011;6452;41.572;23.732;2022-07-29T11:08:21;3.80;;;3.60;;
12776;SDS011;6452;41.572;23.732;2022-07-29T11:10:52;3.60;;;3.30;;
12776;SDS011;6452;41.572;23.732;2022-07-29T11:16:03;3.47;;;3.28;;
12776;SDS011;6452;41.572;23.732;2022-07-29T11:18:31;3.63;;;3.40;;
12776;SDS011;6452;41.572;23.732;2022-07-29T11:20:57;3.70;;;3.50;;
12776;SDS011;6452;41.572;23.732;2022-07-29T11:23:34;3.40;;;3.13;;
12776;SDS011;6452;41.572;23.732;2022-07-29T11:34:43;2.90;;;2.80;;
12776;SDS011;6452;41.572;23.732;2022-07-29T11:39:29;3.22;;;3.03;;
12776;SDS011;6452;41.572;23.732;2022-07-29T11:42:36;3.53;;;3.33;;
12776;SDS011;6452;41.572;23.732;2022-07-29T11:45:26;3.03;;;2.92;;
12776;SDS011;6452;41.572;23.732;2022-07-29T11:47:28;3.42;;;3.25;;
12776;SDS011;6452;41.572;23.732;2022-07-29T11:49:57;3.05;;;2.95;;
12776;SDS011;6452;41.572;23.732;2022-07-29T11:52:24;3.50;;;3.28;;
12776;SDS011;6452;41.572;23.732;2022-07-29T11:54:58;3.72;;;3.42;;
12776;SDS011;6452;41.572;23.732;2022-07-29T11:57:27;3.17;;;2.97;;
12776;SDS011;6452;41.572;23.732;2022-07-29T11:59:53;3.47;;;3.38;;
12776;SDS011;6452;41.572;23.732;2022-07-29T12:02:20;3.28;;;3.08;;
12776;SDS011;6452;41.572;23.732;2022-07-29T12:04:51;4.28;;;3.97;;
12776;SDS011;6452;41.572;23.732;2022-07-29T12:07:17;3.60;;;3.33;;
12776;SDS011;6452;41.572;23.732;2022-07-29T12:09:50;4.10;;;3.67;;
12776;SDS011;6452;41.572;23.732;2022-07-29T12:12:36;6.07;;;4.00;;
12776;SDS011;6452;41.572;23.732;2022-07-29T12:15:15;4.10;;;3.75;;
12776;SDS011;6452;41.572;23.732;2022-07-29T12:17:43;3.78;;;3.47;;
12776;SDS011;6452;41.572;23.732;2022-07-29T12:20:08;3.72;;;3.63;;
12776;SDS011;6452;41.572;23.732;2022-07-29T12:22:35;3.47;;;3.28;;
12776;SDS011;6452;41.572;23.732;2022-07-29T12:25:12;3.85;;;3.53;;
12776;SDS011;6452;41.572;23.732;2022-07-29T12:27:40;3.80;;;3.60;;
12776;SDS011;6452;41.572;23.732;2022-07-29T12:30:09;3.78;;;3.58;;
12776;SDS011;6452;41.572;23.732;2022-07-29T12:32:39;4.30;;;4.00;;
12776;SDS011;6452;41.572;23.732;2022-07-29T12:35:06;4.43;;;4.07;;
12776;SDS011;6452;41.572;23.732;2022-07-29T12:37:33;4.22;;;3.92;;
12776;SDS011;6452;41.572;23.732;2022-07-29T12:40:00;4.18;;;3.85;;
12776;SDS011;6452;41.572;23.732;2022-07-29T12:42:29;4.68;;;4.38;;
12776;SDS011;6452;41.572;23.732;2022-07-29T12:44:55;5.05;;;4.57;;
12776;SDS011;6452;41.572;23.732;2022-07-29T12:47:21;4.55;;;4.35;;
12776;SDS011;6452;41.572;23.732;2022-07-29T12:49:47;4.93;;;4.57;;
12776;SDS011;6452;41.572;23.732;2022-07-29T12:52:30;4.60;;;4.40;;
12776;SDS011;6452;41.572;23.732;2022-07-29T12:55:12;4.85;;;4.53;;
12776;SDS011;6452;41.572;23.732;2022-07-29T12:57:45;4.35;;;4.00;;
12776;SDS011;6452;41.572;23.732;2022-07-29T13:00:12;4.95;;;4.65;;
12776;SDS011;6452;41.572;23.732;2022-07-29T13:02:40;4.78;;;4.47;;
12776;SDS011;6452;41.572;23.732;2022-07-29T13:05:07;4.82;;;4.53;;
12776;SDS011;6452;41.572;23.732;2022-07-29T13:07:34;4.53;;;4.32;;
12776;SDS011;6452;41.572;23.732;2022-07-29T13:10:13;5.30;;;4.90;;
12776;SDS011;6452;41.572;23.732;2022-07-29T13:15:26;4.95;;;4.45;;
12776;SDS011;6452;41.572;23.732;2022-07-29T13:17:55;4.55;;;4.35;;
12776;SDS011;6452;41.572;23.732;2022-07-29T13:20:26;4.25;;;3.95;;
12776;SDS011;6452;41.572;23.732;2022-07-29T13:22:56;4.63;;;4.30;;
12776;SDS011;6452;41.572;23.732;2022-07-29T13:25:24;4.38;;;4.18;;
12776;SDS011;6452;41.572;23.732;2022-07-29T13:27:50;4.80;;;4.50;;
12776;SDS011;6452;41.572;23.732;2022-07-29T13:30:15;4.85;;;4.50;;
12776;SDS011;6452;41.572;23.732;2022-07-29T13:32:41;4.70;;;4.30;;
12776;SDS011;6452;41.572;23.732;2022-07-29T13:35:07;5.00;;;4.60;;
12776;SDS011;6452;41.572;23.732;2022-07-29T13:37:35;4.90;;;4.57;;
12776;SDS011;6452;41.572;23.732;2022-07-29T13:40:04;5.18;;;4.78;;
12776;SDS011;6452;41.572;23.732;2022-07-29T13:42:31;4.60;;;4.40;;
12776;SDS011;6452;41.572;23.732;2022-07-29T13:44:57;4.80;;;4.50;;
12776;SDS011;6452;41.572;23.732;2022-07-29T13:47:23;5.57;;;4.82;;
12776;SDS011;6452;41.572;23.732;2022-07-29T13:49:49;5.22;;;4.68;;
12776;SDS011;6452;41.572;23.732;2022-07-29T13:52:15;5.03;;;4.68;;
12776;SDS011;6452;41.572;23.732;2022-07-29T13:54:41;5.10;;;4.80;;
12776;SDS011;6452;41.572;23.732;2022-07-29T13:57:07;5.15;;;4.70;;
12776;SDS011;6452;41.572;23.732;2022-07-29T13:59:33;4.63;;;4.25;;
12776;SDS011;6452;41.572;23.732;2022-07-29T14:01:59;8.13;;;5.03;;
12776;SDS011;6452;41.572;23.732;2022-07-29T14:04:25;5.13;;;4.65;;
12776;SDS011;6452;41.572;23.732;2022-07-29T14:06:50;5.68;;;5.22;;
12776;SDS011;6452;41.572;23.732;2022-07-29T14:09:16;5.93;;;5.43;;
12776;SDS011;6452;41.572;23.732;2022-07-29T14:11:42;5.28;;;4.70;;
12776;SDS011;6452;41.572;23.732;2022-07-29T14:14:08;5.35;;;5.05;;
12776;SDS011;6452;41.572;23.732;2022-07-29T14:16:35;5.43;;;5.13;;
12776;SDS011;6452;41.572;23.732;2022-07-29T14:19:01;5.72;;;5.05;;
12776;SDS011;6452;41.572;23.732;2022-07-29T14:21:28;5.63;;;5.13;;
12776;SDS011;6452;41.572;23.732;2022-07-29T14:23:53;4.80;;;4.40;;
12776;SDS011;6452;41.572;23.732;2022-07-29T14:26:20;4.82;;;4.32;;
12776;SDS011;6452;41.572;23.732;2022-07-29T14:28:46;5.00;;;4.65;;
12776;SDS011;6452;41.572;23.732;2022-07-29T14:31:12;5.03;;;4.72;;
12776;SDS011;6452;41.572;23.732;2022-07-29T14:33:38;4.88;;;4.53;;
12776;SDS011;6452;41.572;23.732;2022-07-29T14:36:04;4.70;;;4.40;;
12776;SDS011;6452;41.572;23.732;2022-07-29T14:38:30;5.18;;;4.88;;
12776;SDS011;6452;41.572;23.732;2022-07-29T14:40:56;5.03;;;4.78;;
12776;SDS011;6452;41.572;23.732;2022-07-29T14:43:22;5.40;;;5.00;;
12776;SDS011;6452;41.572;23.732;2022-07-29T14:45:48;4.50;;;4.30;;
12776;SDS011;6452;41.572;23.732;2022-07-29T14:48:14;4.88;;;4.47;;
12776;SDS011;6452;41.572;23.732;2022-07-29T14:50:39;5.80;;;5.20;;
12776;SDS011;6452;41.572;23.732;2022-07-29T14:53:09;6.07;;;5.13;;
12776;SDS011;6452;41.572;23.732;2022-07-29T14:55:37;5.32;;;5.03;;
12776;SDS011;6452;41.572;23.732;2022-07-29T14:58:03;5.00;;;4.60;;
12776;SDS011;6452;41.572;23.732;2022-07-29T15:00:29;4.72;;;4.43;;
12776;SDS011;6452;41.572;23.732;2022-07-29T15:02:58;4.70;;;4.50;;
12776;SDS011;6452;41.572;23.732;2022-07-29T15:05:24;5.22;;;4.82;;
12776;SDS011;6452;41.572;23.732;2022-07-29T15:07:50;4.85;;;4.45;;
12776;SDS011;6452;41.572;23.732;2022-07-29T15:10:16;5.90;;;5.35;;
12776;SDS011;6452;41.572;23.732;2022-07-29T15:12:42;5.13;;;4.82;;
12776;SDS011;6452;41.572;23.732;2022-07-29T15:15:08;5.53;;;5.03;;
12776;SDS011;6452;41.572;23.732;2022-07-29T15:17:34;6.00;;;4.38;;
12776;SDS011;6452;41.572;23.732;2022-07-29T15:20:00;5.13;;;4.82;;
12776;SDS011;6452;41.572;23.732;2022-07-29T15:22:27;4.55;;;4.22;;
12776;SDS011;6452;41.572;23.732;2022-07-29T15:24:53;37.95;;;7.72;;
12776;SDS011;6452;41.572;23.732;2022-07-29T15:27:19;62.25;;;10.20;;
12776;SDS011;6452;41.572;23.732;2022-07-29T15:29:45;40.45;;;8.82;;
12776;SDS011;6452;41.572;23.732;2022-07-29T15:32:11;25.80;;;7.15;;
12776;SDS011;6452;41.572;23.732;2022-07-29T15:34:37;12.40;;;6.13;;
12776;SDS011;6452;41.572;23.732;2022-07-29T15:37:04;8.18;;;5.65;;
12776;SDS011;6452;41.572;23.732;2022-07-29T15:39:30;6.38;;;5.45;;
12776;SDS011;6452;41.572;23.732;2022-07-29T15:41:56;9.50;;;5.97;;